Bridge City, Texas
Current Conditions -  °F | °C
As of 10:15 AM on Tuesday 21 Oct 2014 (Local Time) from KORG Reporting Station
Clear Clear  
Wind Chill: 69°   Ceiling: Unl
Heat Index: 69°   Visibility: 10mi
Dew Point: 56°   Wind: 7mph
Humidity: 63%   Direction: 40°NE
Pressure: 30.09"   Gusts: NA
Location:  30.02°N, 93.84°W
Report Text: KORG 211515Z AUTO 04006KT 10SM CLR 21/14 A3009 RMK AO2 T02070135
Loading
Personal Weather Stations






























Interactive Weather Map
Tropical Storm Tracking
New forecast layout! Learn more

10-Day Weather Forecast

Advertisements
Track Severe Weather on mobile